South Macon, Georgia
Current Conditions -  °F | °C
As of 8:25 AM on Sunday 21 Dec 2014 (Local Time) from KMCN Reporting Station
Haze Haze  
Wind Chill: 44°   Ceiling: 400
Heat Index: 48°   Visibility: 1mi
Dew Point: 48°   Wind: 10mph
Humidity: 100%   Direction: 50°NE
Pressure: 30.19"   Gusts: NA
Location:  32.7882°N, 83.6652°W
Report Text: KMCN 211325Z 05009KT 1SM BR OVC004 09/09 A3019 RMK AO2
Loading
Personal Weather Stations






























Interactive Weather Map New forecast layout! Learn more

10-Day Weather Forecast

Advertisements
Track Severe Weather on mobile